createdAt,value
2018-11-28T00:01:40.585Z,23.43
2018-11-28T00:07:30.994Z,19.83
2018-11-28T00:10:02.942Z,18.97
2018-11-28T00:12:35.925Z,22.17
2018-11-28T00:15:13.203Z,22.80
2018-11-28T00:17:49.937Z,21.40
2018-11-28T00:20:24.373Z,18.70
2018-11-28T00:22:59.393Z,20.77
2018-11-28T00:28:05.672Z,19.87
2018-11-28T00:30:42.565Z,22.80
2018-11-28T00:33:15.914Z,22.47
2018-11-28T00:35:50.877Z,22.13
2018-11-28T00:41:06.202Z,25.27
2018-11-28T00:43:41.587Z,23.37
2018-11-28T00:46:15.104Z,22.27
2018-11-28T00:48:50.072Z,23.33
2018-11-28T00:51:23.049Z,21.63
2018-11-28T00:53:56.138Z,21.33
2018-11-28T00:56:30.729Z,24.27
2018-11-28T00:59:08.725Z,21.93
2018-11-28T01:01:44.782Z,20.23
2018-11-28T01:04:17.809Z,24.13
2018-11-28T01:06:56.721Z,20.33
2018-11-28T01:09:28.814Z,20.13
2018-11-28T01:12:02.717Z,23.70
2018-11-28T01:14:35.664Z,21.77
2018-11-28T01:20:07.586Z,23.43
2018-11-28T01:22:40.973Z,20.23
2018-11-28T01:25:18.558Z,19.50
2018-11-28T01:27:52.610Z,21.20
2018-11-28T01:30:22.700Z,23.53
2018-11-28T01:32:54.665Z,24.17
2018-11-28T01:35:31.875Z,21.30
2018-11-28T01:38:01.019Z,19.30
2018-11-28T01:40:33.764Z,22.47
2018-11-28T01:43:05.353Z,19.50
2018-11-28T01:45:36.393Z,22.00
2018-11-28T01:51:14.129Z,21.80
2018-11-28T01:56:18.142Z,20.73
2018-11-28T01:58:50.793Z,19.90
2018-11-28T02:01:22.313Z,21.67
2018-11-28T02:03:59.344Z,23.10
2018-11-28T02:06:34.026Z,23.13
2018-11-28T02:09:04.741Z,21.47
2018-11-28T02:11:39.267Z,19.00
2018-11-28T02:16:43.918Z,21.67
2018-11-28T02:19:20.774Z,22.53
2018-11-28T02:21:54.290Z,26.43
2018-11-28T02:24:26.856Z,21.43
2018-11-28T02:26:59.311Z,21.03
2018-11-28T02:29:38.490Z,23.17
2018-11-28T02:32:09.633Z,25.27
2018-11-28T02:34:41.729Z,21.13
2018-11-28T02:37:15.183Z,21.60
2018-11-28T02:39:48.461Z,23.63
2018-11-28T02:42:27.174Z,20.70
2018-11-28T02:45:01.428Z,23.30
2018-11-28T02:47:34.509Z,26.57
2018-11-28T02:50:10.528Z,23.43
2018-11-28T02:52:41.765Z,24.70
2018-11-28T02:55:17.144Z,28.30
2018-11-28T02:57:50.241Z,25.77
2018-11-28T03:00:26.541Z,26.87
2018-11-28T03:02:56.529Z,26.57
2018-11-28T03:05:29.397Z,24.63
2018-11-28T03:07:59.375Z,26.70
2018-11-28T03:10:32.732Z,22.57
2018-11-28T03:18:38.821Z,25.93
2018-11-28T03:21:21.618Z,25.37
2018-11-28T03:23:53.942Z,25.37
2018-11-28T03:26:22.846Z,23.73
2018-11-28T03:28:56.350Z,27.73
2018-11-28T03:31:38.001Z,29.30
2018-11-28T03:36:49.751Z,25.87
2018-11-28T03:39:22.799Z,24.17
2018-11-28T03:42:00.498Z,24.60
2018-11-28T03:44:30.327Z,27.13
2018-11-28T03:47:03.658Z,23.37
2018-11-28T03:49:39.743Z,26.17
2018-11-28T03:52:12.442Z,22.90
2018-11-28T03:54:47.430Z,24.27
2018-11-28T03:57:18.555Z,27.30
2018-11-28T03:59:54.146Z,28.10
2018-11-28T04:02:24.579Z,24.63
2018-11-28T04:05:00.262Z,26.43
2018-11-28T04:07:34.626Z,25.10
2018-11-28T04:10:05.615Z,25.97
2018-11-28T04:12:41.111Z,28.93
2018-11-28T04:17:49.513Z,28.23
2018-11-28T04:20:18.840Z,27.20
2018-11-28T04:22:52.958Z,28.00
2018-11-28T04:25:29.391Z,31.53
2018-11-28T04:28:10.332Z,28.47
2018-11-28T04:30:43.048Z,27.80
2018-11-28T04:33:20.850Z,28.10
2018-11-28T04:38:30.653Z,23.00
2018-11-28T04:41:03.661Z,29.60
2018-11-28T04:43:36.578Z,25.07
2018-11-28T04:46:13.053Z,25.90
2018-11-28T04:48:44.010Z,22.70
2018-11-28T04:54:02.125Z,26.97
2018-11-28T04:56:32.697Z,22.53
2018-11-28T04:59:06.769Z,25.30
2018-11-28T05:01:38.588Z,23.83
2018-11-28T05:04:12.049Z,26.20
2018-11-28T05:12:11.946Z,27.97
2018-11-28T05:14:43.028Z,30.77
2018-11-28T05:17:19.004Z,24.80
2018-11-28T05:19:50.170Z,27.10
2018-11-28T05:22:41.558Z,23.23
2018-11-28T05:25:21.874Z,24.43
2018-11-28T05:27:54.937Z,30.40
2018-11-28T05:30:32.145Z,25.20
2018-11-28T05:33:07.162Z,26.97
2018-11-28T05:35:40.243Z,27.70
2018-11-28T05:38:16.788Z,25.30
2018-11-28T05:40:50.305Z,25.17
2018-11-28T05:43:23.405Z,26.40
2018-11-28T05:48:32.627Z,28.07
2018-11-28T05:51:06.394Z,27.87
2018-11-28T05:53:42.450Z,25.77
2018-11-28T05:56:12.803Z,33.10
2018-11-28T05:58:48.225Z,30.80
2018-11-28T06:01:17.770Z,30.97
2018-11-28T06:03:51.629Z,31.40
2018-11-28T06:06:23.574Z,25.70
2018-11-28T06:08:57.178Z,27.17
2018-11-28T06:11:26.630Z,30.30
2018-11-28T06:14:03.152Z,34.87
2018-11-28T06:16:38.685Z,27.77
2018-11-28T06:19:13.453Z,33.53
2018-11-28T06:21:46.747Z,29.03
2018-11-28T06:26:54.662Z,27.87
2018-11-28T06:29:28.157Z,35.35
2018-11-28T06:32:03.780Z,31.00
2018-11-28T06:37:18.385Z,32.60
2018-11-28T06:39:51.125Z,24.93
2018-11-28T06:42:27.100Z,26.00
2018-11-28T06:44:59.098Z,28.07
2018-11-28T06:47:36.688Z,42.03
2018-11-28T06:50:06.181Z,34.43
2018-11-28T06:52:42.001Z,28.17
2018-11-28T06:55:13.529Z,29.13
2018-11-28T06:57:48.488Z,28.53
2018-11-28T07:00:17.146Z,26.53
2018-11-28T07:02:50.497Z,27.83
2018-11-28T07:05:25.807Z,25.73
2018-11-28T07:10:36.583Z,28.07
2018-11-28T07:13:08.714Z,31.00
2018-11-28T07:15:45.736Z,27.00
2018-11-28T07:18:15.105Z,31.33
2018-11-28T07:20:56.624Z,28.40
2018-11-28T07:26:16.214Z,27.00
2018-11-28T07:28:48.418Z,30.87
2018-11-28T07:31:21.452Z,26.00
2018-11-28T07:34:00.754Z,24.70
2018-11-28T07:36:36.596Z,27.77
2018-11-28T07:39:08.085Z,29.67
2018-11-28T07:41:55.794Z,31.07
2018-11-28T07:44:29.648Z,33.87
2018-11-28T07:47:02.773Z,29.77
2018-11-28T07:49:41.061Z,27.93
2018-11-28T07:54:56.630Z,33.97
2018-11-28T07:57:29.759Z,36.93
2018-11-28T08:00:05.073Z,39.83
2018-11-28T08:02:38.378Z,33.57
2018-11-28T08:05:14.542Z,39.70
2018-11-28T08:07:49.113Z,35.33
2018-11-28T08:10:26.531Z,40.30
2018-11-28T08:13:02.228Z,39.73
2018-11-28T08:15:31.339Z,28.60
2018-11-28T08:18:01.946Z,32.47
2018-11-28T08:20:38.514Z,32.90
2018-11-28T08:25:47.229Z,28.97
2018-11-28T08:28:17.025Z,34.23
2018-11-28T08:30:54.270Z,32.80
2018-11-28T08:33:23.849Z,34.30
2018-11-28T08:36:00.873Z,30.77
2018-11-28T08:38:32.418Z,36.97
2018-11-28T08:41:14.346Z,35.33
2018-11-28T08:43:45.874Z,34.43
2018-11-28T08:46:19.396Z,39.33
2018-11-28T08:51:38.780Z,34.63
2018-11-28T08:54:12.838Z,32.80
2018-11-28T08:56:46.357Z,34.00
2018-11-28T09:02:00.402Z,32.87
2018-11-28T09:04:30.502Z,35.87
2018-11-28T09:07:08.200Z,36.73
2018-11-28T09:12:30.112Z,30.53
2018-11-28T09:15:02.653Z,36.47
2018-11-28T09:17:38.919Z,33.70
2018-11-28T09:20:10.973Z,34.40
2018-11-28T09:25:44.165Z,32.57
2018-11-28T09:28:17.126Z,26.33
2018-11-28T09:30:48.559Z,31.23
2018-11-28T09:33:24.233Z,32.37
2018-11-28T09:35:56.854Z,33.17
2018-11-28T09:38:30.280Z,31.53
2018-11-28T09:41:01.397Z,33.20
2018-11-28T09:43:35.661Z,33.47
2018-11-28T09:46:10.219Z,32.20
2018-11-28T09:48:43.431Z,32.10
2018-11-28T09:51:20.954Z,27.77
2018-11-28T09:56:27.937Z,28.97
2018-11-28T09:58:59.653Z,32.57
2018-11-28T10:01:37.089Z,31.40
2018-11-28T10:06:51.981Z,30.60
2018-11-28T10:12:14.200Z,26.43
2018-11-28T10:14:47.106Z,28.30
2018-11-28T10:17:22.835Z,28.60
2018-11-28T10:22:38.285Z,29.27
2018-11-28T10:25:09.377Z,26.77
2018-11-28T10:27:45.161Z,28.13
2018-11-28T10:30:13.700Z,26.83
2018-11-28T10:32:46.840Z,25.97
2018-11-28T10:35:28.434Z,28.43
2018-11-28T10:38:02.129Z,28.83
2018-11-28T10:40:37.575Z,28.23
2018-11-28T10:43:12.026Z,25.40
2018-11-28T10:48:29.661Z,32.30
2018-11-28T10:53:43.510Z,32.47
2018-11-28T10:56:18.213Z,32.23
2018-11-28T10:58:50.466Z,28.03
2018-11-28T11:01:20.600Z,30.60
2018-11-28T11:04:17.778Z,26.37
2018-11-28T11:07:04.587Z,27.67
2018-11-28T11:09:54.572Z,28.03
2018-11-28T11:12:44.824Z,30.40
2018-11-28T11:15:20.090Z,24.60
2018-11-28T11:17:54.351Z,26.83
2018-11-28T11:20:25.247Z,26.80
2018-11-28T11:25:34.097Z,27.00
2018-11-28T11:28:07.527Z,23.57
2018-11-28T11:30:41.237Z,27.90
2018-11-28T11:38:35.667Z,27.67
2018-11-28T11:41:08.509Z,24.13
2018-11-28T11:43:44.202Z,23.33
2018-11-28T11:48:53.754Z,22.43
2018-11-28T11:54:17.134Z,20.43
2018-11-28T11:59:27.378Z,22.33
2018-11-28T12:02:03.186Z,23.53
2018-11-28T12:04:37.852Z,17.37
2018-11-28T12:07:08.536Z,18.70
2018-11-28T12:09:44.132Z,17.80
2018-11-28T12:14:54.207Z,21.07
2018-11-28T12:17:39.310Z,20.67
2018-11-28T12:20:21.741Z,20.97
2018-11-28T12:22:53.539Z,19.90
2018-11-28T12:25:27.513Z,18.93
2018-11-28T12:28:04.853Z,20.60
2018-11-28T12:30:33.697Z,16.17
2018-11-28T12:33:06.852Z,19.47
2018-11-28T12:35:39.876Z,25.77
2018-11-28T12:38:10.950Z,20.13
2018-11-28T12:40:43.798Z,26.77
2018-11-28T12:45:52.950Z,20.47
2018-11-28T12:48:23.344Z,20.97
2018-11-28T12:50:56.565Z,19.47
2018-11-28T12:53:27.195Z,21.37
2018-11-28T12:56:08.814Z,26.20
2018-11-28T13:01:24.821Z,16.97
2018-11-28T13:04:03.094Z,18.17
2018-11-28T13:06:33.173Z,20.43
2018-11-28T13:09:03.141Z,21.93
2018-11-28T13:11:44.617Z,24.33
2018-11-28T13:14:16.146Z,26.43
2018-11-28T13:16:58.548Z,25.90
2018-11-28T13:19:27.096Z,21.53
2018-11-28T13:22:03.961Z,22.80
2018-11-28T13:24:33.634Z,22.33
2018-11-28T13:27:07.907Z,21.70
2018-11-28T13:29:45.923Z,22.10
2018-11-28T13:32:22.224Z,22.80
2018-11-28T13:34:55.625Z,22.43
2018-11-28T13:37:36.078Z,20.73
2018-11-28T13:42:46.831Z,21.23
2018-11-28T13:45:21.327Z,23.73
2018-11-28T13:47:58.048Z,23.07
2018-11-28T13:50:32.838Z,19.10
2018-11-28T13:53:07.152Z,22.93
2018-11-28T13:55:42.917Z,21.97
2018-11-28T13:58:15.761Z,20.57
2018-11-28T14:00:51.635Z,20.30
2018-11-28T14:03:24.759Z,22.43
2018-11-28T14:05:57.513Z,24.13
2018-11-28T14:08:32.166Z,22.33
2018-11-28T14:11:02.948Z,24.20
2018-11-28T14:13:38.005Z,23.83
2018-11-28T14:16:07.910Z,24.10
2018-11-28T14:18:42.500Z,23.57
2018-11-28T14:21:20.504Z,23.73
2018-11-28T14:23:58.102Z,21.20
2018-11-28T14:26:32.138Z,24.57
2018-11-28T14:29:02.335Z,21.73
2018-11-28T14:31:41.265Z,27.20
2018-11-28T14:34:12.670Z,25.83
2018-11-28T14:36:46.434Z,23.93
2018-11-28T14:39:19.411Z,27.23
2018-11-28T14:41:52.109Z,31.57
2018-11-28T14:47:28.746Z,24.07
2018-11-28T14:50:04.814Z,24.47
2018-11-28T14:52:36.553Z,25.73
2018-11-28T14:55:18.666Z,27.13
2018-11-28T14:57:55.374Z,31.30
2018-11-28T15:00:32.213Z,26.27
2018-11-28T15:03:03.642Z,26.90
2018-11-28T15:05:46.422Z,30.13
2018-11-28T15:08:23.895Z,25.57
2018-11-28T15:10:54.961Z,30.40
2018-11-28T15:16:23.086Z,23.37
2018-11-28T15:18:56.342Z,30.43
2018-11-28T15:21:35.922Z,23.93
2018-11-28T15:24:09.481Z,25.27
2018-11-28T15:26:44.460Z,26.10
2018-11-28T15:29:15.566Z,28.77
2018-11-28T15:31:51.001Z,26.33
2018-11-28T15:34:20.629Z,25.30
2018-11-28T15:36:55.386Z,25.53
2018-11-28T15:44:33.395Z,24.17
2018-11-28T15:47:10.977Z,28.20
2018-11-28T15:52:20.821Z,24.07
2018-11-28T15:54:53.597Z,24.90
2018-11-28T15:57:22.917Z,24.83
2018-11-28T15:59:58.534Z,25.07
2018-11-28T16:05:10.826Z,26.33
2018-11-28T16:07:42.105Z,33.88
2018-11-28T16:10:38.577Z,28.90
2018-11-28T16:15:41.636Z,28.83
2018-11-28T16:18:14.985Z,29.90
2018-11-28T16:20:52.365Z,31.47
2018-11-28T16:23:23.650Z,27.57
2018-11-28T16:25:53.541Z,28.80
2018-11-28T16:28:29.637Z,27.67
2018-11-28T16:31:04.518Z,24.40
2018-11-28T16:33:55.171Z,25.73
2018-11-28T16:36:35.062Z,29.33
2018-11-28T16:39:21.207Z,27.83
2018-11-28T16:41:59.941Z,29.40
2018-11-28T16:44:33.771Z,25.60
2018-11-28T16:47:03.326Z,25.10
2018-11-28T16:49:35.953Z,25.33
2018-11-28T16:52:08.021Z,26.97
2018-11-28T16:54:41.584Z,27.63
2018-11-28T16:57:13.505Z,26.20
2018-11-28T16:59:47.543Z,25.77
2018-11-28T17:02:22.005Z,26.67
2018-11-28T17:04:58.037Z,24.50
2018-11-28T17:07:30.501Z,23.47
2018-11-28T17:09:59.547Z,25.20
2018-11-28T17:12:29.513Z,25.33
2018-11-28T17:15:08.786Z,27.33
2018-11-28T17:17:39.671Z,24.40
2018-11-28T17:20:16.862Z,26.47
2018-11-28T17:22:48.125Z,33.50
2018-11-28T17:28:04.486Z,30.27
2018-11-28T17:30:47.500Z,31.30
2018-11-28T17:33:32.886Z,27.20
2018-11-28T17:36:08.735Z,31.17
2018-11-28T17:38:39.454Z,29.10
2018-11-28T17:41:21.787Z,36.03
2018-11-28T17:44:02.974Z,26.33
2018-11-28T17:46:35.197Z,26.73
2018-11-28T17:49:13.737Z,24.83
2018-11-28T17:54:22.126Z,29.10
2018-11-28T17:56:55.188Z,28.90
2018-11-28T17:59:31.118Z,29.00
2018-11-28T18:02:03.780Z,26.33
2018-11-28T18:04:45.517Z,30.60
2018-11-28T18:07:17.341Z,34.20
2018-11-28T18:09:50.022Z,28.80
2018-11-28T18:12:19.594Z,34.73
2018-11-28T18:14:57.569Z,30.10
2018-11-28T18:17:26.495Z,33.10
2018-11-28T18:20:00.161Z,29.33
2018-11-28T18:22:37.390Z,30.50
2018-11-28T18:27:47.033Z,29.60
2018-11-28T18:30:16.535Z,33.40
2018-11-28T18:32:48.851Z,39.53
2018-11-28T18:37:55.309Z,24.97
2018-11-28T18:40:28.252Z,35.23
2018-11-28T18:43:01.413Z,27.73
2018-11-28T18:45:32.484Z,39.30
2018-11-28T18:48:07.771Z,36.10
2018-11-28T18:50:37.007Z,41.93
2018-11-28T18:53:10.275Z,27.23
2018-11-28T18:55:45.229Z,28.80
2018-11-28T18:58:24.305Z,26.63
2018-11-28T19:00:58.749Z,30.67
2018-11-28T19:03:33.219Z,30.83
2018-11-28T19:06:07.734Z,31.00
2018-11-28T19:08:46.135Z,32.90
2018-11-28T19:11:17.378Z,29.90
2018-11-28T19:13:54.416Z,28.23
2018-11-28T19:16:23.838Z,29.03
2018-11-28T19:19:06.466Z,30.10
2018-11-28T19:21:41.550Z,29.10
2018-11-28T19:24:13.116Z,28.20
2018-11-28T19:26:42.661Z,31.10
2018-11-28T19:29:22.118Z,29.33
2018-11-28T19:34:29.422Z,27.87
2018-11-28T19:39:46.334Z,29.33
2018-11-28T19:44:57.554Z,28.43
2018-11-28T19:47:30.413Z,29.57
2018-11-28T19:50:08.200Z,29.27
2018-11-28T19:52:39.585Z,28.60
2018-11-28T19:55:10.585Z,30.33
2018-11-28T19:57:45.858Z,30.23
2018-11-28T20:00:18.183Z,31.60
2018-11-28T20:02:53.723Z,32.20
2018-11-28T20:05:26.891Z,27.53
2018-11-28T20:08:04.528Z,30.60
2018-11-28T20:10:34.637Z,30.60
2018-11-28T20:13:10.850Z,28.00
2018-11-28T20:15:39.238Z,32.93
2018-11-28T20:18:14.229Z,35.57
2018-11-28T20:20:45.837Z,30.70
2018-11-28T20:23:21.674Z,31.23
2018-11-28T20:25:51.815Z,30.60
2018-11-28T20:28:28.059Z,33.77
2018-11-28T20:36:37.346Z,33.20
2018-11-28T20:39:10.365Z,35.63
2018-11-28T20:41:51.453Z,32.83
2018-11-28T20:44:22.963Z,32.53
2018-11-28T20:47:05.685Z,34.83
2018-11-28T20:49:43.125Z,36.27
2018-11-28T20:52:14.045Z,40.90
2018-11-28T20:54:45.819Z,34.40
2018-11-28T20:57:17.899Z,35.07
2018-11-28T21:02:35.709Z,34.47
2018-11-28T21:05:17.842Z,39.33
2018-11-28T21:07:48.457Z,38.47
2018-11-28T21:10:40.237Z,35.87
2018-11-28T21:13:10.197Z,41.07
2018-11-28T21:15:47.358Z,35.97
2018-11-28T21:18:20.569Z,34.53
2018-11-28T21:20:55.394Z,40.33
2018-11-28T21:23:28.690Z,33.77
2018-11-28T21:26:00.579Z,38.37
2018-11-28T21:28:33.310Z,40.37
2018-11-28T21:31:05.236Z,34.83
2018-11-28T21:33:41.489Z,36.63
2018-11-28T21:36:12.805Z,35.57
2018-11-28T21:38:45.034Z,37.83
2018-11-28T21:43:54.728Z,41.43
2018-11-28T21:46:25.158Z,37.07
2018-11-28T21:48:58.773Z,35.13
2018-11-28T21:51:30.709Z,38.77
2018-11-28T21:54:06.664Z,38.87
2018-11-28T21:59:20.844Z,43.63
2018-11-28T22:01:56.741Z,39.07
2018-11-28T22:07:15.458Z,48.33
2018-11-28T22:09:46.270Z,34.27
2018-11-28T22:12:23.553Z,48.70
2018-11-28T22:14:55.618Z,49.97
2018-11-28T22:17:27.426Z,39.17
2018-11-28T22:20:03.517Z,38.80
2018-11-28T22:25:26.605Z,39.27
2018-11-28T22:28:00.105Z,40.57
2018-11-28T22:30:31.654Z,44.77
2018-11-28T22:33:04.920Z,43.80
2018-11-28T22:35:42.117Z,43.67
2018-11-28T22:38:16.279Z,43.53
2018-11-28T22:40:47.641Z,43.27
2018-11-28T22:43:20.626Z,41.17
2018-11-28T22:45:50.056Z,42.83
2018-11-28T22:48:21.921Z,37.70
2018-11-28T22:50:55.382Z,39.93
2018-11-28T22:56:02.698Z,41.37
2018-11-28T22:58:37.877Z,46.53
2018-11-28T23:01:14.153Z,43.20
2018-11-28T23:06:23.530Z,40.77
2018-11-28T23:11:46.148Z,42.33
2018-11-28T23:17:02.058Z,40.10
2018-11-28T23:19:36.965Z,39.73
2018-11-28T23:22:11.393Z,43.60
2018-11-28T23:24:45.939Z,39.33
2018-11-28T23:27:20.641Z,38.07
2018-11-28T23:30:02.453Z,39.40
2018-11-28T23:32:38.760Z,38.03
2018-11-28T23:35:08.741Z,40.37
2018-11-28T23:37:41.543Z,39.83
2018-11-28T23:40:24.016Z,44.90
2018-11-28T23:42:54.598Z,39.77
2018-11-28T23:45:36.734Z,44.83
2018-11-28T23:48:13.998Z,40.20
2018-11-28T23:50:45.125Z,49.93
2018-11-28T23:53:18.229Z,47.67
2018-11-28T23:55:55.161Z,40.83
2018-11-28T23:58:29.795Z,40.63
